createdAt,value
2023-05-24T04:56:29.845Z,96882.91
2023-05-24T04:57:42.485Z,96895.16
2023-05-24T07:37:47.966Z,96950.56
2023-05-24T07:40:00.250Z,96956.72
2023-05-24T07:41:03.645Z,96968.47
2023-05-24T07:42:05.651Z,96971.16
2023-05-24T07:43:07.070Z,96966.22
2023-05-24T07:44:08.452Z,96963.50
2023-05-24T07:45:10.498Z,96961.81
2023-05-24T07:47:15.841Z,96966.91
2023-05-24T07:48:17.308Z,96966.13
2023-05-24T07:50:29.026Z,96973.53
2023-05-24T07:51:30.559Z,96971.06
2023-05-24T07:53:40.213Z,96953.63
2023-05-24T07:54:42.200Z,96961.34
2023-05-24T07:56:53.300Z,96968.00
2023-05-24T07:57:54.715Z,96971.88
2023-05-24T08:00:14.497Z,96979.06
2023-05-24T08:01:16.366Z,96977.09
2023-05-24T08:03:29.835Z,96974.97
2023-05-24T08:04:33.254Z,96971.44
2023-05-24T08:06:48.172Z,96981.16
2023-05-24T08:09:10.508Z,96982.75
2023-05-24T08:25:53.422Z,96981.09
2023-05-24T08:28:14.609Z,96972.69
2023-05-24T08:29:17.902Z,96988.84
2023-05-24T08:30:20.137Z,96987.66
2023-05-24T08:31:22.089Z,96990.84
2023-05-24T08:32:24.258Z,96986.84
2023-05-24T08:33:26.024Z,96984.53
2023-05-24T08:34:28.548Z,96988.38
2023-05-24T08:35:30.219Z,96985.97
2023-05-24T08:36:32.797Z,96996.78
2023-05-24T08:37:34.266Z,96992.25
2023-05-24T08:38:35.738Z,96989.09
2023-05-24T08:39:37.154Z,96993.19
2023-05-24T08:40:38.688Z,96994.19
2023-05-24T08:41:41.483Z,96995.19
2023-05-24T08:42:43.121Z,96988.91
2023-05-24T08:43:47.101Z,96986.78
2023-05-24T10:11:49.618Z,97004.28
2023-05-24T10:13:56.067Z,97005.53
2023-05-24T10:14:58.281Z,97009.22
2023-05-24T10:17:15.364Z,97003.44
2023-05-24T10:18:16.992Z,97007.91
2023-05-24T10:19:18.586Z,97000.78
2023-05-24T10:20:20.334Z,97004.31
2023-05-24T10:21:24.518Z,97002.84
2023-05-24T10:22:27.208Z,96996.94
2023-05-24T10:23:31.993Z,97009.56
2023-05-24T10:24:37.048Z,96998.22
2023-05-24T10:25:44.615Z,97007.38
2023-05-24T10:26:48.850Z,97001.69
2023-05-24T10:27:52.630Z,97004.34
2023-05-24T10:29:04.738Z,96996.59
2023-05-24T10:30:21.139Z,97000.66
2023-05-24T10:31:30.133Z,97001.06
2023-05-24T10:32:35.546Z,96989.66
2023-05-24T10:33:38.291Z,96979.50
2023-05-24T10:34:41.537Z,97000.31
2023-05-24T10:35:43.985Z,96987.69
2023-05-24T10:36:45.891Z,96992.53
2023-05-24T10:37:47.775Z,96975.34
2023-05-24T10:38:50.527Z,96982.28
2023-05-24T10:39:52.581Z,96980.94
2023-05-24T10:40:54.206Z,96986.94
2023-05-24T10:42:02.967Z,96976.25
2023-05-24T10:43:06.566Z,96981.22
2023-05-24T10:44:13.194Z,96978.78
2023-05-24T10:45:36.509Z,96978.66
2023-05-24T10:47:04.215Z,96981.66
2023-05-24T10:48:14.600Z,96984.59
2023-05-24T10:49:16.101Z,96972.63
2023-05-24T10:50:19.046Z,96977.75
2023-05-24T10:51:38.515Z,96978.97
2023-05-24T10:52:40.349Z,96982.03
2023-05-24T10:53:42.133Z,96984.63
2023-05-24T10:55:05.162Z,96984.75
2023-05-24T10:56:09.601Z,96980.63
2023-05-24T10:57:11.116Z,96983.38
2023-05-24T10:58:12.606Z,96979.25
2023-05-24T10:59:28.480Z,96981.91
2023-05-24T11:00:48.274Z,96975.03
2023-05-24T11:02:00.813Z,96962.38
2023-05-24T11:03:06.673Z,96965.41
2023-05-24T11:04:15.732Z,96976.91
2023-05-24T11:05:18.299Z,96983.78
2023-05-24T11:06:20.368Z,96967.59
2023-05-24T11:07:22.058Z,96971.00
2023-05-24T11:08:31.896Z,96967.28
2023-05-24T11:09:33.590Z,96969.84
2023-05-24T11:10:35.765Z,96959.22
2023-05-24T11:11:38.209Z,96955.88
2023-05-24T11:12:41.991Z,96963.47
2023-05-24T11:13:45.881Z,96965.75
2023-05-24T11:14:52.688Z,96961.66
2023-05-24T11:15:54.805Z,96958.56
2023-05-24T11:16:57.708Z,96968.63
2023-05-24T11:18:14.446Z,96954.44
2023-05-24T11:19:25.086Z,96966.69
2023-05-24T11:20:27.226Z,96963.88
2023-05-24T11:21:29.574Z,96955.16
2023-05-24T11:22:31.556Z,96957.72
2023-05-24T11:23:34.479Z,96956.03
2023-05-24T11:24:38.158Z,96943.44
2023-05-24T11:25:39.770Z,96957.91
2023-05-24T11:26:41.284Z,96953.28
2023-05-24T11:27:46.587Z,96953.78
2023-05-24T11:28:49.001Z,96962.53
2023-05-24T11:29:50.410Z,96952.94
2023-05-24T11:30:52.167Z,96951.09
2023-05-24T11:32:04.305Z,96951.38
2023-05-24T11:33:05.926Z,96942.25
2023-05-24T11:34:10.434Z,96943.31
2023-05-24T11:35:12.034Z,96945.28
2023-05-24T11:36:13.631Z,96948.75
2023-05-24T11:37:18.078Z,96948.97
2023-05-24T11:38:24.185Z,96950.13
2023-05-24T11:39:34.313Z,96951.50
2023-05-24T11:40:35.902Z,96945.59
2023-05-24T11:41:41.207Z,96947.00
2023-05-24T11:42:44.318Z,96948.31
2023-05-24T11:43:46.080Z,96950.34
2023-05-24T11:44:48.598Z,96935.44
2023-05-24T11:45:50.925Z,96945.53
2023-05-24T11:47:02.515Z,96946.88
2023-05-24T11:48:06.329Z,96945.44
2023-05-24T11:49:13.021Z,96947.09
2023-05-24T11:50:24.382Z,96945.22
2023-05-24T11:51:30.933Z,96946.50
2023-05-24T11:52:32.653Z,96944.78
2023-05-24T11:53:37.555Z,96943.13
2023-05-24T11:54:39.134Z,96946.66
2023-05-24T11:55:41.535Z,96945.88
2023-05-24T11:56:43.113Z,96947.69
2023-05-24T11:57:54.233Z,96944.75
2023-05-24T11:59:16.502Z,96944.94
2023-05-24T12:00:24.813Z,96917.59
2023-05-24T12:01:27.345Z,96937.44
2023-05-24T12:02:30.402Z,96943.75
2023-05-24T12:03:32.798Z,96934.59
2023-05-24T12:04:35.279Z,96937.91
2023-05-24T12:05:37.820Z,96932.03
2023-05-24T12:06:44.373Z,96941.16
2023-05-24T12:07:48.867Z,96938.38
2023-05-24T12:08:50.399Z,96944.97
2023-05-24T12:09:51.928Z,96944.06
2023-05-24T12:10:53.470Z,96938.56
2023-05-24T12:11:55.690Z,96930.94
2023-05-24T12:12:57.931Z,96927.41
2023-05-24T12:13:59.430Z,96933.50
2023-05-24T12:15:00.923Z,96940.34
2023-05-24T12:16:03.074Z,96936.38
2023-05-24T12:17:04.956Z,96936.25
2023-05-24T12:18:18.507Z,96930.41
2023-05-24T12:19:32.277Z,96933.22
2023-05-24T12:20:34.857Z,96930.78
2023-05-24T12:21:41.572Z,96926.03
2023-05-24T12:22:53.235Z,96930.75
2023-05-24T12:23:54.637Z,96928.53
2023-05-24T12:24:57.084Z,96927.91
2023-05-24T12:26:00.102Z,96927.56
2023-05-24T12:27:03.627Z,96922.31
2023-05-24T12:28:05.778Z,96929.09
2023-05-24T12:29:07.291Z,96928.28
2023-05-24T12:30:10.120Z,96918.09
2023-05-24T12:31:12.282Z,96919.72
2023-05-24T12:32:15.134Z,96918.94
2023-05-24T12:33:21.063Z,96928.03
2023-05-24T12:34:22.479Z,96932.56
2023-05-24T12:35:24.142Z,96921.19
2023-05-24T12:36:25.680Z,96923.59
2023-05-24T12:37:30.841Z,96922.81
2023-05-24T12:38:32.683Z,96916.31
2023-05-24T12:39:36.700Z,96922.16
2023-05-24T12:40:38.119Z,96920.34
2023-05-24T12:41:41.278Z,96919.66
2023-05-24T12:42:45.305Z,96918.88
2023-05-24T12:43:46.688Z,96924.31
2023-05-24T12:44:52.378Z,96916.16
2023-05-24T12:45:54.550Z,96918.69
2023-05-24T12:46:57.464Z,96918.50
2023-05-24T12:47:59.882Z,96919.94
2023-05-24T12:49:04.644Z,96915.25
2023-05-24T12:50:06.339Z,96918.03
2023-05-24T12:51:08.636Z,96908.69
2023-05-24T12:52:12.440Z,96917.59
2023-05-24T12:53:14.184Z,96921.66
2023-05-24T12:54:18.140Z,96918.00
2023-05-24T12:55:22.047Z,96921.91
2023-05-24T12:56:27.368Z,96915.44
2023-05-24T12:57:29.076Z,96918.41
2023-05-24T12:58:30.541Z,96915.63
2023-05-24T12:59:33.228Z,96910.34
2023-05-24T13:00:34.786Z,96910.53
2023-05-24T13:01:36.766Z,96913.91
2023-05-24T13:02:40.551Z,96912.09
2023-05-24T13:03:42.056Z,96910.22
2023-05-24T13:04:43.573Z,96899.53
2023-05-24T13:05:46.040Z,96904.34
2023-05-24T13:06:50.717Z,96913.53
2023-05-24T13:07:52.477Z,96919.44
2023-05-24T13:08:53.901Z,96902.66
2023-05-24T13:09:55.356Z,96911.00
2023-05-24T13:10:57.104Z,96910.41
2023-05-24T13:11:58.635Z,96911.00
2023-05-24T13:13:00.475Z,96902.38
2023-05-24T13:14:04.897Z,96906.66
2023-05-24T13:15:07.617Z,96900.94
2023-05-24T13:16:10.425Z,96902.16
2023-05-24T13:17:12.129Z,96904.63
2023-05-24T13:18:13.903Z,96894.31
2023-05-24T13:19:15.528Z,96897.97
2023-05-24T13:20:19.064Z,96895.31
2023-05-24T13:21:20.589Z,96895.38
2023-05-24T13:22:22.066Z,96890.44
2023-05-24T13:23:23.434Z,96890.09
2023-05-24T13:24:24.997Z,96893.09
2023-05-24T13:25:27.143Z,96889.56
2023-05-24T13:26:28.812Z,96890.50
2023-05-24T13:27:30.303Z,96882.28
2023-05-24T13:28:31.824Z,96885.97
2023-05-24T13:29:42.231Z,96880.56
2023-05-24T13:30:44.319Z,96845.66
2023-05-24T13:31:46.339Z,96886.66
2023-05-24T13:32:47.821Z,96883.16
2023-05-24T13:33:49.220Z,96879.41
2023-05-24T13:34:50.665Z,96888.09
2023-05-24T13:35:53.991Z,96882.69
2023-05-24T13:36:55.998Z,96883.78
2023-05-24T13:37:58.507Z,96882.06
2023-05-24T13:39:13.408Z,96878.25
2023-05-24T13:40:17.828Z,96882.88
2023-05-24T13:41:19.969Z,96884.59
2023-05-24T13:42:21.990Z,96885.06
2023-05-24T13:43:23.521Z,96883.63
2023-05-24T13:44:24.947Z,96882.00
2023-05-24T13:45:27.082Z,96875.97
2023-05-24T13:46:29.608Z,96882.81
2023-05-24T13:47:39.199Z,96870.91
2023-05-24T13:48:41.672Z,96878.47
2023-05-24T13:49:43.151Z,96880.50
2023-05-24T13:50:45.105Z,96870.91
2023-05-24T13:51:47.068Z,96874.72
2023-05-24T13:52:48.519Z,96860.03
2023-05-24T13:53:50.160Z,96864.44
2023-05-24T13:54:52.282Z,96862.91
2023-05-24T13:55:53.986Z,96861.81
2023-05-24T13:56:57.539Z,96859.72
2023-05-24T13:57:59.203Z,96867.59
2023-05-24T13:59:02.619Z,96866.69
2023-05-24T14:00:05.581Z,96862.31
2023-05-24T14:01:07.650Z,96863.44
2023-05-24T14:02:09.300Z,96854.63
2023-05-24T14:03:13.117Z,96858.50
2023-05-24T14:04:16.753Z,96861.88
2023-05-24T14:05:27.272Z,96870.44
2023-05-24T14:06:29.812Z,96861.72
2023-05-24T14:07:31.239Z,96870.47
2023-05-24T14:08:32.742Z,96863.78
2023-05-24T14:09:34.856Z,96863.50
2023-05-24T14:10:37.366Z,96859.56
2023-05-24T14:11:38.919Z,96863.63
2023-05-24T14:12:40.584Z,96856.13
2023-05-24T14:14:35.928Z,96852.00
2023-05-24T14:15:05.041Z,96852.44
2023-05-24T14:16:07.480Z,96869.84
2023-05-24T14:17:09.072Z,96870.34
2023-05-24T14:18:10.902Z,96856.50
2023-05-24T14:19:12.752Z,96870.41
2023-05-24T14:20:14.238Z,96866.72
2023-05-24T14:21:15.886Z,96864.25
2023-05-24T14:22:17.833Z,96867.72
2023-05-24T14:23:19.319Z,96860.66
2023-05-24T14:24:21.280Z,96861.75
2023-05-24T14:25:22.653Z,96863.22
2023-05-24T14:26:24.389Z,96859.59
2023-05-24T14:27:26.048Z,96865.78
2023-05-24T14:28:27.501Z,96867.28
2023-05-24T14:29:29.260Z,96856.94
2023-05-24T14:30:33.885Z,96856.72
2023-05-24T14:31:42.001Z,96866.72
2023-05-24T14:32:43.581Z,96860.28
2023-05-24T14:33:45.143Z,96870.28
2023-05-24T14:34:46.559Z,96866.28
2023-05-24T14:35:48.108Z,96861.84
2023-05-24T14:36:49.609Z,96849.28
2023-05-24T14:37:51.148Z,96864.03
2023-05-24T14:38:52.712Z,96868.56
2023-05-24T14:39:55.525Z,96864.78
2023-05-24T14:40:58.170Z,96864.69
2023-05-24T14:41:59.591Z,96862.13
2023-05-24T14:43:01.094Z,96858.94
2023-05-24T14:44:11.555Z,96865.06
2023-05-24T14:45:13.133Z,96852.03
2023-05-24T14:46:14.692Z,96861.41
2023-05-24T14:47:16.273Z,96864.84
2023-05-24T14:48:17.787Z,96852.72
2023-05-24T14:49:20.287Z,96864.09
2023-05-24T14:50:21.872Z,96860.19
2023-05-24T14:51:23.261Z,96865.44
2023-05-24T14:52:24.845Z,96857.63
2023-05-24T14:53:26.346Z,96867.47
2023-05-24T14:54:27.740Z,96858.34
2023-05-24T14:55:29.165Z,96862.81
2023-05-24T14:56:30.980Z,96853.72
2023-05-24T14:57:32.630Z,96861.97
2023-05-24T14:58:34.088Z,96866.75
2023-05-24T14:59:35.781Z,96855.00
2023-05-24T15:00:38.618Z,96862.09
2023-05-24T15:01:40.398Z,96858.72
2023-05-24T15:02:42.167Z,96857.38
2023-05-24T15:03:43.995Z,96862.63
2023-05-24T15:04:45.968Z,96863.53
2023-05-24T15:05:47.549Z,96864.50
2023-05-24T15:06:49.000Z,96849.13
2023-05-24T15:07:50.454Z,96862.13
2023-05-24T15:08:52.197Z,96854.47
2023-05-24T15:09:53.599Z,96853.63
2023-05-24T15:10:56.691Z,96860.19
2023-05-24T15:12:00.146Z,96859.91
2023-05-24T15:13:04.006Z,96861.31
2023-05-24T15:14:05.401Z,96859.84
2023-05-24T15:15:07.779Z,96857.19
2023-05-24T15:16:09.254Z,96864.47
2023-05-24T15:17:11.328Z,96863.31
2023-05-24T15:18:12.977Z,96850.13
2023-05-24T15:19:14.717Z,96842.09
2023-05-24T15:20:16.360Z,96867.00
2023-05-24T15:21:19.462Z,96852.53
2023-05-24T15:22:21.103Z,96851.59
2023-05-24T15:23:22.711Z,96851.25
2023-05-24T15:24:24.194Z,96857.56
2023-05-24T15:25:25.652Z,96856.94
2023-05-24T15:26:27.338Z,96848.41
2023-05-24T15:27:28.728Z,96850.00
2023-05-24T15:28:30.714Z,96857.75
2023-05-24T15:29:32.410Z,96834.50
2023-05-24T15:30:33.857Z,96859.78
2023-05-24T15:31:36.271Z,96840.00
2023-05-24T15:32:37.882Z,96858.72
2023-05-24T15:33:39.546Z,96854.22
2023-05-24T15:34:41.167Z,96862.00
2023-05-24T15:35:42.867Z,96851.09
2023-05-24T15:36:45.240Z,96855.66
2023-05-24T15:37:47.062Z,96858.63
2023-05-24T15:38:48.821Z,96855.97
2023-05-24T15:39:51.492Z,96859.97
2023-05-24T15:40:52.991Z,96840.50
2023-05-24T15:41:54.732Z,96857.00
2023-05-24T15:42:56.147Z,96854.31
2023-05-24T15:43:59.524Z,96851.72
2023-05-24T15:45:00.916Z,96855.91
2023-05-24T15:46:02.293Z,96857.00
2023-05-24T15:47:03.960Z,96846.59
2023-05-24T15:48:05.762Z,96851.34
2023-05-24T15:49:07.264Z,96850.28
2023-05-24T15:50:09.138Z,96849.97
2023-05-24T15:52:15.011Z,96859.09
2023-05-24T15:53:16.591Z,96858.69
2023-05-24T15:54:18.572Z,96849.69
2023-05-24T15:55:20.037Z,96857.91
2023-05-24T15:56:22.186Z,96844.94
2023-05-24T15:57:23.669Z,96849.19
2023-05-24T15:58:25.228Z,96832.84
2023-05-24T15:59:27.788Z,96855.16
2023-05-24T16:00:29.266Z,96852.53
2023-05-24T16:01:30.763Z,96859.09
2023-05-24T16:02:32.348Z,96853.69
2023-05-24T16:03:33.966Z,96851.00
2023-05-24T16:04:35.629Z,96852.09
2023-05-24T16:05:37.107Z,96851.59
2023-05-24T16:06:38.563Z,96853.69
2023-05-24T16:19:32.212Z,96824.09
2023-05-24T16:20:34.353Z,96841.03
2023-05-24T16:23:11.610Z,96849.53
